createdAt,value
2023-01-30T00:00:58.802Z,63.02
2023-01-30T00:04:00.354Z,63.34
2023-01-30T00:07:01.777Z,63.03
2023-01-30T00:10:03.373Z,63.62
2023-01-30T00:13:04.791Z,63.74
2023-01-30T00:16:07.315Z,63.54
2023-01-30T00:19:08.846Z,64.19
2023-01-30T00:22:10.280Z,63.62
2023-01-30T00:25:11.802Z,63.67
2023-01-30T00:28:13.378Z,63.00
2023-01-30T00:31:16.284Z,63.58
2023-01-30T00:34:18.417Z,63.54
2023-01-30T00:37:19.789Z,63.88
2023-01-30T00:40:21.277Z,64.12
2023-01-30T00:43:41.514Z,64.06
2023-01-30T00:47:15.468Z,63.44
2023-01-30T00:50:16.983Z,63.15
2023-01-30T00:53:18.625Z,62.26
2023-01-30T00:56:20.060Z,63.17
2023-01-30T00:59:21.453Z,62.28
2023-01-30T01:02:22.910Z,62.29
2023-01-30T01:05:24.557Z,62.15
2023-01-30T01:08:27.813Z,62.47
2023-01-30T01:11:30.509Z,62.32
2023-01-30T01:14:32.793Z,62.28
2023-01-30T01:17:34.271Z,62.46
2023-01-30T01:20:35.813Z,62.51
2023-01-30T01:23:37.693Z,62.33
2023-01-30T01:26:39.441Z,63.24
2023-01-30T01:29:40.868Z,63.07
2023-01-30T01:32:42.302Z,63.65
2023-01-30T01:35:44.427Z,63.90
2023-01-30T01:38:45.901Z,64.12
2023-01-30T01:41:48.082Z,64.23
2023-01-30T01:45:17.989Z,64.84
2023-01-30T01:48:27.485Z,64.20
2023-01-30T01:51:38.570Z,63.42
2023-01-30T01:54:48.651Z,63.83
2023-01-30T01:58:23.188Z,63.83
2023-01-30T02:01:26.753Z,62.95
2023-01-30T02:04:48.755Z,63.61
2023-01-30T02:07:50.107Z,64.03
2023-01-30T02:11:01.025Z,64.41
2023-01-30T02:14:03.113Z,64.96
2023-01-30T02:17:04.595Z,64.14
2023-01-30T02:20:24.551Z,65.25
2023-01-30T02:23:38.109Z,64.92
2023-01-30T02:26:47.506Z,65.14
2023-01-30T02:30:05.033Z,64.37
2023-01-30T02:33:14.863Z,64.03
2023-01-30T02:36:47.195Z,63.75
2023-01-30T02:39:57.672Z,65.28
2023-01-30T02:43:20.859Z,64.83
2023-01-30T02:46:31.478Z,63.91
2023-01-30T02:49:38.982Z,66.43
2023-01-30T02:52:42.414Z,65.17
2023-01-30T02:55:43.755Z,65.54
2023-01-30T02:58:49.354Z,66.04
2023-01-30T03:02:28.226Z,65.81
2023-01-30T03:05:43.201Z,65.32
2023-01-30T03:09:19.715Z,65.05
2023-01-30T03:12:33.687Z,64.46
2023-01-30T03:15:47.333Z,64.62
2023-01-30T03:18:49.489Z,65.13
2023-01-30T03:21:51.638Z,64.50
2023-01-30T03:24:54.436Z,64.82
2023-01-30T03:27:57.192Z,66.97
2023-01-30T03:30:58.779Z,67.12
2023-01-30T03:34:00.296Z,65.53
2023-01-30T03:37:02.759Z,65.74
2023-01-30T03:40:09.782Z,65.07
2023-01-30T03:43:12.545Z,64.37
2023-01-30T03:46:13.987Z,64.04
2023-01-30T03:49:15.687Z,63.62
2023-01-30T03:52:17.145Z,63.06
2023-01-30T03:55:19.076Z,62.86
2023-01-30T03:58:21.470Z,62.55
2023-01-30T04:01:23.491Z,61.74
2023-01-30T04:04:25.123Z,61.94
2023-01-30T04:07:29.597Z,62.33
2023-01-30T04:10:32.824Z,62.12
2023-01-30T04:13:34.312Z,62.95
2023-01-30T04:16:35.940Z,62.62
2023-01-30T04:20:16.236Z,62.37
2023-01-30T04:23:23.543Z,62.40
2023-01-30T04:26:25.805Z,62.45
2023-01-30T04:29:27.422Z,63.19
2023-01-30T04:32:30.183Z,63.00
2023-01-30T04:35:31.768Z,62.90
2023-01-30T04:38:34.231Z,63.47
2023-01-30T04:41:36.201Z,62.29
2023-01-30T04:44:37.643Z,62.29
2023-01-30T04:47:46.639Z,61.97
2023-01-30T04:50:49.970Z,61.79
2023-01-30T04:53:51.793Z,62.20
2023-01-30T04:56:53.898Z,61.96
2023-01-30T04:59:55.328Z,62.68
2023-01-30T05:02:57.625Z,62.58
2023-01-30T05:05:59.093Z,62.14
2023-01-30T05:09:01.213Z,62.58
2023-01-30T05:12:02.652Z,62.55
2023-01-30T05:15:05.044Z,62.40
2023-01-30T05:18:06.502Z,63.42
2023-01-30T05:21:10.567Z,62.68
2023-01-30T05:24:11.989Z,62.62
2023-01-30T05:27:13.379Z,61.52
2023-01-30T05:30:14.904Z,61.95
2023-01-30T05:33:16.313Z,61.69
2023-01-30T05:36:20.264Z,61.55
2023-01-30T05:39:21.676Z,61.68
2023-01-30T05:42:23.091Z,61.82
2023-01-30T05:45:24.509Z,61.32
2023-01-30T05:48:26.354Z,60.91
2023-01-30T05:51:27.828Z,60.49
2023-01-30T05:54:29.220Z,60.78
2023-01-30T05:57:30.625Z,59.98
2023-01-30T06:00:32.029Z,60.54
2023-01-30T06:03:33.518Z,60.09
2023-01-30T06:06:35.128Z,60.38
2023-01-30T06:09:36.575Z,59.30
2023-01-30T06:12:38.077Z,59.53
2023-01-30T06:15:39.547Z,59.79
2023-01-30T06:18:40.980Z,60.19
2023-01-30T06:21:42.368Z,60.73
2023-01-30T06:24:43.753Z,61.14
2023-01-30T06:27:48.161Z,61.05
2023-01-30T06:30:49.990Z,61.10
2023-01-30T06:33:51.578Z,61.79
2023-01-30T06:36:52.993Z,60.80
2023-01-30T06:39:54.397Z,59.76
2023-01-30T06:42:55.870Z,60.04
2023-01-30T06:45:59.544Z,60.53
2023-01-30T06:49:01.034Z,59.96
2023-01-30T06:52:02.668Z,60.19
2023-01-30T06:55:04.358Z,61.34
2023-01-30T06:58:10.373Z,61.48
2023-01-30T07:01:11.988Z,60.67
2023-01-30T07:04:13.440Z,61.08
2023-01-30T07:07:14.877Z,61.34
2023-01-30T07:10:16.643Z,61.38
2023-01-30T07:13:18.137Z,60.26
2023-01-30T07:16:19.768Z,61.24
2023-01-30T07:19:21.182Z,60.32
2023-01-30T07:22:22.651Z,60.35
2023-01-30T07:25:26.230Z,59.97
2023-01-30T07:28:27.679Z,59.89
2023-01-30T07:31:29.260Z,59.37
2023-01-30T07:34:30.733Z,58.53
2023-01-30T07:37:32.166Z,59.67
2023-01-30T07:40:33.774Z,59.77
2023-01-30T07:43:35.345Z,59.55
2023-01-30T07:46:37.149Z,59.89
2023-01-30T07:49:38.566Z,60.45
2023-01-30T07:52:39.943Z,60.04
2023-01-30T07:55:41.918Z,59.56
2023-01-30T07:58:43.295Z,59.52
2023-01-30T08:01:44.683Z,59.49
2023-01-30T08:04:46.138Z,59.41
2023-01-30T08:07:47.610Z,59.46
2023-01-30T08:10:49.306Z,59.40
2023-01-30T08:13:51.013Z,59.12
2023-01-30T08:16:52.435Z,58.46
2023-01-30T08:19:53.904Z,58.16
2023-01-30T08:22:55.521Z,57.72
2023-01-30T08:25:59.318Z,58.15
2023-01-30T08:29:00.897Z,58.42
2023-01-30T08:32:02.481Z,58.90
2023-01-30T08:35:04.034Z,58.23
2023-01-30T08:38:07.133Z,58.18
2023-01-30T08:41:09.549Z,58.45
2023-01-30T08:44:11.385Z,58.12
2023-01-30T08:47:12.932Z,58.18
2023-01-30T08:50:14.316Z,58.39
2023-01-30T08:53:15.779Z,59.06
2023-01-30T08:56:17.239Z,59.60
2023-01-30T08:59:18.645Z,59.52
2023-01-30T09:02:20.112Z,59.58
2023-01-30T09:05:22.078Z,60.28
2023-01-30T09:08:23.514Z,60.80
2023-01-30T09:11:24.936Z,60.24
2023-01-30T09:14:26.437Z,59.58
2023-01-30T09:17:27.841Z,60.46
2023-01-30T09:20:29.247Z,59.74
2023-01-30T09:23:30.703Z,59.32
2023-01-30T09:26:32.503Z,58.94
2023-01-30T09:29:33.944Z,59.13
2023-01-30T09:32:37.373Z,58.63
2023-01-30T09:35:38.835Z,59.19
2023-01-30T09:38:40.317Z,58.75
2023-01-30T09:42:13.614Z,58.93
2023-01-30T09:45:18.074Z,59.27
2023-01-30T09:48:47.875Z,58.68
2023-01-30T09:52:16.324Z,58.38
2023-01-30T09:55:21.554Z,58.63
2023-01-30T09:58:24.559Z,59.17
2023-01-30T10:01:50.983Z,59.17
2023-01-30T10:05:01.470Z,59.46
2023-01-30T10:08:28.497Z,59.29
2023-01-30T10:11:29.999Z,59.39
2023-01-30T10:14:38.550Z,60.11
2023-01-30T10:17:56.947Z,59.56
2023-01-30T10:21:16.598Z,59.72
2023-01-30T10:24:18.159Z,59.61
2023-01-30T10:27:22.603Z,59.57
2023-01-30T10:30:24.595Z,59.13
2023-01-30T10:33:33.667Z,58.02
2023-01-30T10:36:35.170Z,58.29
2023-01-30T10:40:02.038Z,58.42
2023-01-30T10:43:15.234Z,57.55
2023-01-30T10:46:31.498Z,57.91
2023-01-30T10:49:43.846Z,57.77
2023-01-30T10:53:04.184Z,57.63
2023-01-30T10:56:16.934Z,58.75
2023-01-30T10:59:28.666Z,57.84
2023-01-30T11:02:44.118Z,58.90
2023-01-30T11:05:49.857Z,58.54
2023-01-30T11:08:53.941Z,58.78
2023-01-30T11:11:55.702Z,58.06
2023-01-30T11:15:03.899Z,58.56
2023-01-30T11:18:41.097Z,57.30
2023-01-30T11:21:43.138Z,57.48
2023-01-30T11:24:45.923Z,57.59
2023-01-30T11:28:00.414Z,57.16
2023-01-30T11:31:01.835Z,56.79
2023-01-30T11:34:06.066Z,57.12
2023-01-30T11:37:32.070Z,57.93
2023-01-30T11:40:40.126Z,58.54
2023-01-30T11:43:41.594Z,59.23
2023-01-30T11:46:43.252Z,59.55
2023-01-30T11:50:15.544Z,59.09
2023-01-30T11:53:28.976Z,59.00
2023-01-30T11:56:33.849Z,59.83
2023-01-30T11:59:40.605Z,59.55
2023-01-30T12:02:43.771Z,59.28
2023-01-30T12:05:47.173Z,59.10
2023-01-30T12:08:54.058Z,59.50
2023-01-30T12:11:55.432Z,59.01
2023-01-30T12:15:14.475Z,59.63
2023-01-30T12:18:42.802Z,59.37
2023-01-30T12:21:52.458Z,59.39
2023-01-30T12:25:34.134Z,59.41
2023-01-30T12:28:52.056Z,60.07
2023-01-30T12:35:18.811Z,59.65
2023-01-30T12:38:26.055Z,59.31
2023-01-30T12:41:31.458Z,59.76
2023-01-30T12:44:51.538Z,61.09
2023-01-30T12:48:01.608Z,62.05
2023-01-30T12:51:08.650Z,62.48
2023-01-30T12:54:34.649Z,63.52
2023-01-30T12:57:47.237Z,64.97
2023-01-30T13:00:54.216Z,65.86
2023-01-30T13:04:23.114Z,67.22
2023-01-30T13:07:31.389Z,67.62
2023-01-30T13:11:03.425Z,67.81
2023-01-30T13:14:22.634Z,68.43
2023-01-30T13:17:48.164Z,68.31
2023-01-30T13:21:00.585Z,68.49
2023-01-30T13:24:05.080Z,68.70
2023-01-30T13:27:13.207Z,69.15
2023-01-30T13:30:18.002Z,69.16
2023-01-30T13:33:24.232Z,68.19
2023-01-30T13:36:54.331Z,68.42
2023-01-30T13:40:00.382Z,69.16
2023-01-30T13:43:17.480Z,69.70
2023-01-30T13:46:26.357Z,69.10
2023-01-30T13:49:40.079Z,69.29
2023-01-30T13:52:59.598Z,69.71
2023-01-30T13:56:40.212Z,68.66
2023-01-30T13:59:57.825Z,68.96
2023-01-30T14:03:08.579Z,69.01
2023-01-30T14:06:31.060Z,68.95
2023-01-30T14:09:33.833Z,68.48
2023-01-30T14:12:40.146Z,68.96
2023-01-30T14:16:05.910Z,68.61
2023-01-30T14:19:32.312Z,67.90
2023-01-30T14:22:50.599Z,68.30
2023-01-30T14:25:56.476Z,67.44
2023-01-30T14:28:58.034Z,67.25
2023-01-30T14:31:59.452Z,67.45
2023-01-30T14:35:22.606Z,67.07
2023-01-30T14:38:26.002Z,67.14
2023-01-30T14:41:28.322Z,67.69
2023-01-30T14:44:48.557Z,67.75
2023-01-30T14:48:33.548Z,67.06
2023-01-30T14:51:47.776Z,66.92
2023-01-30T14:54:50.877Z,66.55
2023-01-30T14:58:02.442Z,67.28
2023-01-30T15:01:04.487Z,66.20
2023-01-30T15:04:05.907Z,66.44
2023-01-30T15:07:19.931Z,66.06
2023-01-30T15:10:49.458Z,66.47
2023-01-30T15:14:08.867Z,66.51
2023-01-30T15:17:16.323Z,66.27
2023-01-30T15:20:30.837Z,66.00
2023-01-30T15:23:56.325Z,66.39
2023-01-30T15:27:13.007Z,66.75
2023-01-30T15:30:42.993Z,67.59
2023-01-30T15:33:49.733Z,67.84
2023-01-30T15:36:51.164Z,68.22
2023-01-30T15:40:18.836Z,68.42
2023-01-30T15:43:29.628Z,68.35
2023-01-30T15:46:56.973Z,68.79
2023-01-30T15:50:09.844Z,67.98
2023-01-30T15:53:14.711Z,68.04
2023-01-30T15:56:23.298Z,67.65
2023-01-30T15:59:35.917Z,67.66
2023-01-30T16:02:37.369Z,67.48
2023-01-30T16:05:46.755Z,67.88
2023-01-30T16:09:00.640Z,68.33
2023-01-30T16:12:02.126Z,67.39
2023-01-30T16:15:18.933Z,67.57
2023-01-30T16:18:21.215Z,66.82
2023-01-30T16:21:26.931Z,67.16
2023-01-30T16:24:31.915Z,66.57
2023-01-30T16:27:35.556Z,66.65
2023-01-30T16:30:42.369Z,66.81
2023-01-30T16:33:51.413Z,66.50
2023-01-30T16:36:52.849Z,66.64
2023-01-30T16:40:14.792Z,66.35
2023-01-30T16:43:23.635Z,66.61
2023-01-30T16:46:48.334Z,66.31
2023-01-30T16:49:50.168Z,65.99
2023-01-30T16:52:54.555Z,65.95
2023-01-30T16:55:58.938Z,65.65
2023-01-30T16:59:01.767Z,65.99
2023-01-30T17:02:05.953Z,66.07
2023-01-30T17:05:17.393Z,66.38
2023-01-30T17:08:30.893Z,65.98
2023-01-30T17:11:33.794Z,65.85
2023-01-30T17:14:35.263Z,65.95
2023-01-30T17:17:36.684Z,65.94
2023-01-30T17:20:41.846Z,66.30
2023-01-30T17:23:46.376Z,66.19
2023-01-30T17:27:00.149Z,65.71
2023-01-30T17:30:01.670Z,66.04
2023-01-30T17:33:03.375Z,66.27
2023-01-30T17:36:06.893Z,66.65
2023-01-30T17:39:14.685Z,66.15
2023-01-30T17:42:21.915Z,66.08
2023-01-30T17:45:23.531Z,65.98
2023-01-30T17:48:24.953Z,66.34
2023-01-30T17:51:26.407Z,66.00
2023-01-30T17:54:29.959Z,66.18
2023-01-30T17:57:31.428Z,66.38
2023-01-30T18:00:32.870Z,67.03
2023-01-30T18:03:35.292Z,66.26
2023-01-30T18:06:38.632Z,65.76
2023-01-30T18:09:40.299Z,65.91
2023-01-30T18:12:41.941Z,65.45
2023-01-30T18:15:43.462Z,65.49
2023-01-30T18:18:45.257Z,65.75
2023-01-30T18:21:46.714Z,65.46
2023-01-30T18:24:48.144Z,65.72
2023-01-30T18:27:49.659Z,66.45
2023-01-30T18:30:51.187Z,66.61
2023-01-30T18:33:53.515Z,67.22
2023-01-30T18:36:54.923Z,67.47
2023-01-30T18:39:56.464Z,67.52
2023-01-30T18:42:58.029Z,67.46
2023-01-30T18:46:05.528Z,67.31
2023-01-30T18:49:19.145Z,67.04
2023-01-30T18:52:26.870Z,66.72
2023-01-30T18:55:28.355Z,65.99
2023-01-30T18:58:32.025Z,66.75
2023-01-30T19:01:40.085Z,66.69
2023-01-30T19:04:41.751Z,66.48
2023-01-30T19:07:43.200Z,66.50
2023-01-30T19:10:44.911Z,66.33
2023-01-30T19:13:46.371Z,66.16
2023-01-30T19:16:47.969Z,65.93
2023-01-30T19:19:49.352Z,66.17
2023-01-30T19:22:50.838Z,65.64
2023-01-30T19:25:56.242Z,65.16
2023-01-30T19:28:57.777Z,65.45
2023-01-30T19:31:59.371Z,65.64
2023-01-30T19:35:01.042Z,65.33
2023-01-30T19:38:02.488Z,66.00
2023-01-30T19:41:04.254Z,65.84
2023-01-30T19:44:08.740Z,65.85
2023-01-30T19:47:10.162Z,65.54
2023-01-30T19:50:12.115Z,65.69
2023-01-30T19:53:13.573Z,65.26
2023-01-30T19:56:15.521Z,64.76
2023-01-30T19:59:17.040Z,65.26
2023-01-30T20:02:18.504Z,65.14
2023-01-30T20:05:20.973Z,65.53
2023-01-30T20:08:32.242Z,65.44
2023-01-30T20:11:35.894Z,65.21
2023-01-30T20:14:37.392Z,64.89
2023-01-30T20:17:38.828Z,64.73
2023-01-30T20:20:40.249Z,65.02
2023-01-30T20:23:42.249Z,65.25
2023-01-30T20:26:47.137Z,65.36
2023-01-30T20:29:49.620Z,65.17
2023-01-30T20:32:54.675Z,65.37
2023-01-30T20:36:01.110Z,65.31
2023-01-30T20:39:04.316Z,65.00
2023-01-30T20:42:06.342Z,64.78
2023-01-30T20:45:08.365Z,64.76
2023-01-30T20:48:09.785Z,65.10
2023-01-30T20:51:13.431Z,65.65
2023-01-30T20:54:14.989Z,65.27
2023-01-30T20:57:16.428Z,65.17
2023-01-30T21:00:18.379Z,65.81
2023-01-30T21:03:19.863Z,65.68
2023-01-30T21:06:41.281Z,64.55
2023-01-30T21:09:44.617Z,64.59
2023-01-30T21:12:46.042Z,64.23
2023-01-30T21:15:49.207Z,64.18
2023-01-30T21:18:53.796Z,64.32
2023-01-30T21:22:07.372Z,64.46
2023-01-30T21:25:08.894Z,64.13
2023-01-30T21:28:10.282Z,64.45
2023-01-30T21:31:13.395Z,64.38
2023-01-30T21:34:15.332Z,65.03
2023-01-30T21:37:35.451Z,64.88
2023-01-30T21:40:55.337Z,64.84
2023-01-30T21:43:57.225Z,65.53
2023-01-30T21:46:58.784Z,66.04
2023-01-30T21:50:00.246Z,65.26
2023-01-30T21:53:01.859Z,65.47
2023-01-30T21:56:03.437Z,65.60
2023-01-30T21:59:06.223Z,65.41
2023-01-30T22:02:09.639Z,65.68
2023-01-30T22:05:11.136Z,65.37
2023-01-30T22:08:12.545Z,65.69
2023-01-30T22:11:20.541Z,65.56
2023-01-30T22:14:21.973Z,65.36
2023-01-30T22:17:23.406Z,65.14
2023-01-30T22:20:24.895Z,65.85
2023-01-30T22:23:31.252Z,65.64
2023-01-30T22:26:33.778Z,65.60
2023-01-30T22:29:35.326Z,65.60
2023-01-30T22:32:37.331Z,65.79
2023-01-30T22:35:39.466Z,65.50
2023-01-30T22:38:46.328Z,65.59
2023-01-30T22:41:47.756Z,65.73
2023-01-30T22:44:49.816Z,65.97
2023-01-30T22:47:51.267Z,65.39
2023-01-30T22:51:04.295Z,65.37
2023-01-30T22:54:08.962Z,65.72
2023-01-30T22:57:10.521Z,65.58
2023-01-30T23:00:12.206Z,65.28
2023-01-30T23:03:13.600Z,65.25
2023-01-30T23:06:17.159Z,65.36
2023-01-30T23:09:21.422Z,65.19
2023-01-30T23:12:41.146Z,65.19
2023-01-30T23:15:43.454Z,65.84
2023-01-30T23:18:58.227Z,66.11
2023-01-30T23:21:59.605Z,65.38
2023-01-30T23:25:01.020Z,65.20
2023-01-30T23:28:02.425Z,65.18
2023-01-30T23:31:09.566Z,65.22
2023-01-30T23:34:17.674Z,65.03
2023-01-30T23:37:39.127Z,65.22
2023-01-30T23:40:40.687Z,65.69
2023-01-30T23:43:44.340Z,65.46
2023-01-30T23:46:46.349Z,65.06
2023-01-30T23:49:47.755Z,64.99
2023-01-30T23:52:49.251Z,64.97
2023-01-30T23:55:52.159Z,65.24
2023-01-30T23:58:53.950Z,65.92
